createdAt,value
2018-03-20T00:00:15.793Z,11.35
2018-03-20T00:02:43.316Z,13.13
2018-03-20T00:05:10.754Z,11.48
2018-03-20T00:07:38.192Z,11.38
2018-03-20T00:10:05.678Z,11.20
2018-03-20T00:12:33.140Z,12.70
2018-03-20T00:15:00.685Z,12.57
2018-03-20T00:17:28.264Z,11.65
2018-03-20T00:19:55.702Z,10.82
2018-03-20T00:22:23.179Z,9.88
2018-03-20T00:24:50.615Z,10.10
2018-03-20T00:27:18.116Z,11.43
2018-03-20T00:29:45.556Z,12.43
2018-03-20T00:32:12.984Z,10.70
2018-03-20T00:34:40.548Z,11.70
2018-03-20T00:37:08.180Z,10.80
2018-03-20T00:39:35.671Z,12.07
2018-03-20T00:42:03.151Z,12.30
2018-03-20T00:44:30.676Z,10.98
2018-03-20T00:46:58.103Z,11.77
2018-03-20T00:49:25.591Z,10.40
2018-03-20T00:51:53.015Z,10.57
2018-03-20T00:54:20.499Z,10.32
2018-03-20T00:56:47.928Z,10.65
2018-03-20T00:59:15.359Z,11.38
2018-03-20T01:01:42.788Z,10.63
2018-03-20T01:04:10.228Z,10.60
2018-03-20T01:06:37.803Z,10.18
2018-03-20T01:09:05.246Z,10.90
2018-03-20T01:11:32.689Z,11.02
2018-03-20T01:14:00.125Z,11.85
2018-03-20T01:16:27.607Z,10.45
2018-03-20T01:18:55.236Z,10.73
2018-03-20T01:21:22.689Z,10.63
2018-03-20T01:23:51.204Z,9.60
2018-03-20T01:26:18.637Z,10.57
2018-03-20T01:28:46.115Z,10.82
2018-03-20T01:31:13.577Z,11.00
2018-03-20T01:33:41.025Z,11.73
2018-03-20T01:36:08.790Z,10.48
2018-03-20T01:38:36.435Z,11.18
2018-03-20T01:41:04.029Z,10.80
2018-03-20T01:43:31.466Z,10.48
2018-03-20T01:45:58.901Z,10.32
2018-03-20T01:48:26.328Z,11.63
2018-03-20T01:50:53.844Z,11.30
2018-03-20T01:53:21.280Z,10.50
2018-03-20T01:55:48.712Z,11.12
2018-03-20T01:58:16.140Z,10.45
2018-03-20T02:00:43.584Z,11.45
2018-03-20T02:03:11.054Z,11.10
2018-03-20T02:05:38.487Z,9.93
2018-03-20T02:08:06.028Z,12.00
2018-03-20T02:10:33.464Z,12.37
2018-03-20T02:13:00.952Z,10.90
2018-03-20T02:15:28.585Z,10.45
2018-03-20T02:17:56.037Z,10.45
2018-03-20T02:20:23.627Z,10.25
2018-03-20T02:22:51.377Z,10.30
2018-03-20T02:25:18.824Z,11.18
2018-03-20T02:27:46.305Z,9.45
2018-03-20T02:30:13.780Z,10.13
2018-03-20T02:32:41.381Z,9.07
2018-03-20T02:35:08.854Z,10.00
2018-03-20T02:37:36.425Z,10.10
2018-03-20T02:40:04.077Z,8.60
2018-03-20T02:42:31.501Z,10.15
2018-03-20T02:44:59.707Z,9.55
2018-03-20T02:47:27.174Z,9.20
2018-03-20T02:49:54.936Z,10.70
2018-03-20T02:52:22.572Z,7.75
2018-03-20T02:54:50.163Z,7.50
2018-03-20T02:57:17.614Z,7.62
2018-03-20T02:59:45.239Z,7.35
2018-03-20T03:02:13.623Z,7.72
2018-03-20T03:04:41.210Z,8.75
2018-03-20T03:07:08.853Z,8.25
2018-03-20T03:09:36.268Z,8.18
2018-03-20T03:12:03.705Z,7.32
2018-03-20T03:14:31.340Z,7.97
2018-03-20T03:16:58.809Z,8.75
2018-03-20T03:19:26.228Z,7.22
2018-03-20T03:21:53.660Z,7.97
2018-03-20T03:24:21.168Z,7.85
2018-03-20T03:26:48.595Z,8.30
2018-03-20T03:29:16.026Z,7.43
2018-03-20T03:31:44.217Z,7.40
2018-03-20T03:34:11.647Z,7.80
2018-03-20T03:36:39.080Z,7.57
2018-03-20T03:39:06.501Z,7.45
2018-03-20T03:41:33.977Z,7.25
2018-03-20T03:44:01.403Z,6.82
2018-03-20T03:46:28.890Z,7.60
2018-03-20T03:48:56.341Z,7.37
2018-03-20T03:51:23.776Z,7.35
2018-03-20T03:53:51.201Z,7.20
2018-03-20T03:56:18.615Z,9.45
2018-03-20T03:58:46.045Z,7.50
2018-03-20T04:01:13.627Z,8.60
2018-03-20T04:03:41.059Z,7.22
2018-03-20T04:06:08.481Z,7.15
2018-03-20T04:08:35.908Z,6.50
2018-03-20T04:11:03.480Z,6.12
2018-03-20T04:13:31.085Z,9.32
2018-03-20T04:15:58.671Z,7.80
2018-03-20T04:18:26.125Z,6.72
2018-03-20T04:20:53.752Z,7.53
2018-03-20T04:23:21.217Z,6.53
2018-03-20T04:25:48.640Z,7.50
2018-03-20T04:28:16.128Z,7.05
2018-03-20T04:30:43.602Z,5.95
2018-03-20T04:33:11.164Z,8.10
2018-03-20T04:35:38.588Z,5.95
2018-03-20T04:38:06.073Z,7.05
2018-03-20T04:40:33.534Z,7.18
2018-03-20T04:43:00.972Z,6.30
2018-03-20T04:45:28.384Z,5.80
2018-03-20T04:47:55.811Z,6.37
2018-03-20T04:50:23.368Z,6.72
2018-03-20T04:52:50.784Z,7.00
2018-03-20T04:55:18.222Z,6.55
2018-03-20T04:57:45.733Z,6.93
2018-03-20T05:00:13.164Z,6.70
2018-03-20T05:02:40.590Z,6.45
2018-03-20T05:05:09.049Z,6.07
2018-03-20T05:07:36.484Z,7.03
2018-03-20T05:10:03.941Z,6.60
2018-03-20T05:12:31.356Z,6.60
2018-03-20T05:14:58.850Z,6.82
2018-03-20T05:17:26.481Z,6.57
2018-03-20T05:19:54.700Z,6.53
2018-03-20T05:22:33.852Z,6.00
2018-03-20T05:25:01.276Z,6.43
2018-03-20T05:27:28.702Z,5.78
2018-03-20T05:29:56.125Z,4.85
2018-03-20T05:32:23.560Z,6.97
2018-03-20T05:34:50.980Z,5.85
2018-03-20T05:37:18.444Z,6.78
2018-03-20T05:39:45.927Z,5.55
2018-03-20T05:42:13.372Z,5.97
2018-03-20T05:44:40.809Z,6.80
2018-03-20T05:47:11.883Z,6.35
2018-03-20T05:52:39.761Z,5.68
2018-03-20T05:55:07.962Z,6.95
2018-03-20T05:57:35.398Z,5.65
2018-03-20T06:00:02.817Z,6.20
2018-03-20T06:02:30.258Z,6.97
2018-03-20T06:04:57.675Z,6.60
2018-03-20T06:07:25.109Z,6.68
2018-03-20T06:09:53.309Z,7.95
2018-03-20T06:12:20.758Z,6.12
2018-03-20T06:14:48.189Z,7.40
2018-03-20T06:17:15.626Z,6.50
2018-03-20T06:19:43.090Z,6.57
2018-03-20T06:22:10.525Z,7.22
2018-03-20T06:24:37.966Z,7.30
2018-03-20T06:27:05.409Z,6.05
2018-03-20T06:29:32.872Z,6.72
2018-03-20T06:32:00.288Z,6.30
2018-03-20T06:34:27.725Z,7.57
2018-03-20T06:36:55.161Z,6.72
2018-03-20T06:39:22.585Z,7.50
2018-03-20T06:41:50.036Z,7.60
2018-03-20T06:44:17.457Z,5.85
2018-03-20T06:46:45.648Z,6.93
2018-03-20T06:49:13.082Z,7.03
2018-03-20T06:51:41.283Z,7.40
2018-03-20T06:54:08.712Z,7.95
2018-03-20T06:56:36.145Z,8.48
2018-03-20T06:59:03.590Z,8.52
2018-03-20T07:01:31.016Z,8.30
2018-03-20T07:03:58.460Z,7.95
2018-03-20T07:06:25.892Z,8.90
2018-03-20T07:08:54.088Z,8.40
2018-03-20T07:11:21.534Z,8.07
2018-03-20T07:13:48.964Z,8.32
2018-03-20T07:16:16.400Z,8.23
2018-03-20T07:18:43.828Z,8.30
2018-03-20T07:21:11.266Z,7.20
2018-03-20T07:23:38.697Z,7.72
2018-03-20T07:26:06.120Z,7.30
2018-03-20T07:28:33.604Z,6.55
2018-03-20T07:31:00.990Z,7.47
2018-03-20T07:33:28.421Z,7.15
2018-03-20T07:35:56.613Z,7.37
2018-03-20T07:38:24.054Z,7.35
2018-03-20T07:40:52.246Z,6.53
2018-03-20T07:43:19.680Z,7.12
2018-03-20T07:45:47.119Z,6.28
2018-03-20T07:48:14.581Z,7.22
2018-03-20T07:50:42.801Z,7.25
2018-03-20T07:53:10.205Z,6.75
2018-03-20T07:55:37.638Z,6.30
2018-03-20T07:58:05.061Z,6.60
2018-03-20T08:00:32.492Z,7.30
2018-03-20T08:02:59.926Z,7.35
2018-03-20T08:05:27.356Z,7.10
2018-03-20T08:07:54.852Z,6.97
2018-03-20T08:10:22.244Z,6.68
2018-03-20T08:12:49.650Z,6.62
2018-03-20T08:15:17.081Z,6.70
2018-03-20T08:17:44.510Z,6.95
2018-03-20T08:20:11.950Z,6.57
2018-03-20T08:22:39.369Z,6.80
2018-03-20T08:25:06.797Z,9.27
2018-03-20T08:27:34.227Z,6.47
2018-03-20T08:30:01.650Z,4.97
2018-03-20T08:32:29.074Z,6.35
2018-03-20T08:34:56.518Z,10.98
2018-03-20T08:37:23.936Z,10.63
2018-03-20T08:39:51.365Z,7.75
2018-03-20T08:42:18.786Z,6.55
2018-03-20T08:44:46.206Z,7.10
2018-03-20T08:47:13.628Z,9.07
2018-03-20T08:49:41.808Z,6.90
2018-03-20T08:52:09.244Z,7.47
2018-03-20T08:54:36.673Z,17.62
2018-03-20T08:57:04.100Z,6.97
2018-03-20T08:59:31.512Z,5.57
2018-03-20T09:01:58.937Z,4.97
2018-03-20T09:04:26.365Z,4.68
2018-03-20T09:06:53.793Z,5.25
2018-03-20T09:09:21.205Z,5.87
2018-03-20T09:11:48.636Z,6.12
2018-03-20T09:14:16.060Z,5.00
2018-03-20T09:16:43.497Z,4.82
2018-03-20T09:19:10.910Z,5.00
2018-03-20T09:21:38.336Z,5.78
2018-03-20T09:24:06.516Z,6.35
2018-03-20T09:26:33.945Z,5.60
2018-03-20T09:29:01.364Z,5.62
2018-03-20T09:31:28.804Z,5.80
2018-03-20T09:33:56.217Z,5.68
2018-03-20T09:36:24.406Z,7.57
2018-03-20T09:38:51.828Z,5.60
2018-03-20T09:41:19.249Z,5.10
2018-03-20T09:43:46.736Z,5.95
2018-03-20T09:46:14.123Z,5.57
2018-03-20T09:48:42.321Z,5.15
2018-03-20T09:51:09.784Z,6.22
2018-03-20T09:53:37.278Z,4.37
2018-03-20T09:56:04.688Z,5.28
2018-03-20T09:58:32.133Z,4.78
2018-03-20T10:00:59.615Z,4.95
2018-03-20T10:03:27.049Z,5.53
2018-03-20T10:05:54.504Z,5.78
2018-03-20T10:08:21.949Z,4.78
2018-03-20T10:10:49.427Z,4.50
2018-03-20T10:13:16.874Z,6.00
2018-03-20T10:15:44.345Z,4.75
2018-03-20T10:18:11.890Z,4.43
2018-03-20T10:20:39.325Z,4.28
2018-03-20T10:23:06.844Z,4.47
2018-03-20T10:25:34.261Z,5.60
2018-03-20T10:28:01.689Z,5.62
2018-03-20T10:30:29.117Z,5.53
2018-03-20T10:32:56.605Z,4.60
2018-03-20T10:35:24.069Z,4.50
2018-03-20T10:37:51.471Z,5.93
2018-03-20T10:40:18.912Z,5.78
2018-03-20T10:42:46.345Z,4.90
2018-03-20T10:45:13.785Z,5.00
2018-03-20T10:47:41.204Z,4.55
2018-03-20T10:50:08.636Z,5.22
2018-03-20T10:52:36.052Z,5.50
2018-03-20T10:55:03.555Z,5.20
2018-03-20T10:57:31.701Z,5.18
2018-03-20T10:59:59.133Z,5.30
2018-03-20T11:02:31.364Z,6.78
2018-03-20T11:04:58.830Z,6.25
2018-03-20T11:07:26.246Z,5.50
2018-03-20T11:09:53.703Z,4.82
2018-03-20T11:12:21.141Z,5.70
2018-03-20T11:14:48.634Z,6.00
2018-03-20T11:17:16.080Z,6.00
2018-03-20T11:19:43.532Z,6.12
2018-03-20T11:22:10.962Z,6.30
2018-03-20T11:24:38.420Z,6.57
2018-03-20T11:27:05.804Z,6.70
2018-03-20T11:29:33.251Z,6.82
2018-03-20T11:32:00.688Z,6.12
2018-03-20T11:34:28.150Z,6.85
2018-03-20T11:36:55.573Z,5.90
2018-03-20T11:39:23.008Z,6.50
2018-03-20T11:41:50.445Z,6.15
2018-03-20T11:44:17.873Z,6.28
2018-03-20T11:46:45.311Z,5.95
2018-03-20T11:49:12.774Z,9.48
2018-03-20T11:51:40.223Z,8.95
2018-03-20T11:54:07.648Z,8.82
2018-03-20T11:56:35.149Z,8.90
2018-03-20T11:59:02.587Z,9.13
2018-03-20T12:01:30.776Z,9.03
2018-03-20T12:03:58.246Z,9.55
2018-03-20T12:06:25.696Z,10.55
2018-03-20T12:08:53.173Z,8.50
2018-03-20T12:11:20.639Z,9.73
2018-03-20T12:13:48.068Z,11.73
2018-03-20T12:16:15.498Z,11.07
2018-03-20T12:18:43.700Z,11.40
2018-03-20T12:21:11.128Z,10.20
2018-03-20T12:23:38.573Z,11.17
2018-03-20T12:26:06.769Z,11.87
2018-03-20T12:28:34.205Z,13.43
2018-03-20T12:31:01.637Z,11.00
2018-03-20T12:33:29.087Z,12.03
2018-03-20T12:35:56.517Z,12.60
2018-03-20T12:38:23.963Z,14.67
2018-03-20T12:40:51.406Z,12.67
2018-03-20T12:43:18.849Z,13.00
2018-03-20T12:45:46.285Z,15.43
2018-03-20T12:48:13.725Z,14.07
2018-03-20T12:50:41.180Z,12.87
2018-03-20T12:53:08.606Z,13.80
2018-03-20T12:55:36.044Z,12.83
2018-03-20T12:58:03.497Z,13.90
2018-03-20T13:00:30.940Z,12.90
2018-03-20T13:02:58.389Z,13.40
2018-03-20T13:05:25.841Z,13.25
2018-03-20T13:07:54.094Z,13.10
2018-03-20T13:10:21.485Z,13.40
2018-03-20T13:12:48.920Z,12.27
2018-03-20T13:15:16.358Z,13.43
2018-03-20T13:17:43.792Z,12.93
2018-03-20T13:20:11.227Z,12.45
2018-03-20T13:22:38.673Z,12.73
2018-03-20T13:25:06.109Z,12.18
2018-03-20T13:27:33.555Z,12.70
2018-03-20T13:30:01.755Z,12.43
2018-03-20T13:32:29.193Z,13.17
2018-03-20T13:34:56.660Z,13.20
2018-03-20T13:37:24.066Z,13.50
2018-03-20T13:39:51.490Z,12.67
2018-03-20T13:42:18.928Z,13.17
2018-03-20T13:44:46.352Z,15.13
2018-03-20T13:47:14.558Z,13.77
2018-03-20T13:49:41.989Z,12.80
2018-03-20T13:52:09.416Z,12.57
2018-03-20T13:54:36.865Z,13.82
2018-03-20T13:57:04.289Z,11.27
2018-03-20T13:59:31.733Z,11.95
2018-03-20T14:01:59.161Z,12.30
2018-03-20T14:04:27.376Z,11.85
2018-03-20T14:06:54.810Z,12.60
2018-03-20T14:09:22.262Z,12.43
2018-03-20T14:11:49.697Z,10.65
2018-03-20T14:14:17.143Z,12.13
2018-03-20T14:16:44.565Z,11.52
2018-03-20T14:19:12.016Z,10.82
2018-03-20T14:21:39.446Z,10.65
2018-03-20T14:24:06.894Z,11.85
2018-03-20T14:26:35.084Z,10.30
2018-03-20T14:29:02.532Z,9.93
2018-03-20T14:31:29.972Z,10.93
2018-03-20T14:33:57.413Z,9.27
2018-03-20T14:36:24.843Z,8.50
2018-03-20T14:38:52.298Z,9.73
2018-03-20T14:41:19.741Z,9.75
2018-03-20T14:43:47.179Z,11.80
2018-03-20T14:46:14.623Z,10.43
2018-03-20T14:48:42.052Z,10.82
2018-03-20T14:51:09.488Z,10.05
2018-03-20T14:53:36.918Z,9.82
2018-03-20T14:56:04.349Z,11.07
2018-03-20T14:58:31.785Z,10.27
2018-03-20T15:00:59.992Z,10.05
2018-03-20T15:03:27.423Z,8.35
2018-03-20T15:05:54.872Z,8.95
2018-03-20T15:08:23.069Z,9.48
2018-03-20T15:10:50.498Z,10.18
2018-03-20T15:13:18.692Z,8.70
2018-03-20T15:15:46.120Z,10.07
2018-03-20T15:18:13.566Z,10.98
2018-03-20T15:20:40.998Z,9.20
2018-03-20T15:23:08.432Z,8.73
2018-03-20T15:25:35.860Z,10.38
2018-03-20T15:28:04.061Z,9.90
2018-03-20T15:30:31.493Z,10.23
2018-03-20T15:32:58.928Z,9.68
2018-03-20T15:35:27.124Z,8.52
2018-03-20T15:37:54.557Z,8.43
2018-03-20T15:40:21.981Z,8.50
2018-03-20T15:42:49.416Z,10.18
2018-03-20T15:45:16.848Z,8.90
2018-03-20T15:47:44.274Z,8.50
2018-03-20T15:50:12.476Z,9.32
2018-03-20T15:52:39.901Z,9.70
2018-03-20T15:55:07.352Z,9.00
2018-03-20T15:57:34.781Z,8.70
2018-03-20T16:00:02.228Z,10.05
2018-03-20T16:02:29.662Z,10.57
2018-03-20T16:04:57.094Z,9.90
2018-03-20T16:07:24.570Z,10.38
2018-03-20T16:09:52.021Z,9.60
2018-03-20T16:12:19.495Z,9.98
2018-03-20T16:14:46.882Z,10.63
2018-03-20T16:17:14.325Z,10.13
2018-03-20T16:19:41.758Z,9.88
2018-03-20T16:22:09.186Z,9.70
2018-03-20T16:24:36.625Z,10.13
2018-03-20T16:27:04.065Z,10.35
2018-03-20T16:29:31.488Z,9.70
2018-03-20T16:31:58.929Z,8.95
2018-03-20T16:34:26.365Z,9.30
2018-03-20T16:36:54.576Z,9.77
2018-03-20T16:39:21.997Z,10.32
2018-03-20T16:41:49.435Z,10.10
2018-03-20T16:44:16.898Z,10.98
2018-03-20T16:46:44.336Z,9.32
2018-03-20T16:49:11.756Z,9.93
2018-03-20T16:51:39.193Z,11.07
2018-03-20T16:54:06.622Z,13.43
2018-03-20T16:56:34.840Z,11.70
2018-03-20T16:59:02.262Z,10.00
2018-03-20T17:01:29.688Z,11.18
2018-03-20T17:03:57.134Z,9.95
2018-03-20T17:06:24.628Z,12.23
2018-03-20T17:08:52.048Z,10.75
2018-03-20T17:11:19.493Z,9.82
2018-03-20T17:13:46.981Z,13.27
2018-03-20T17:16:14.417Z,10.35
2018-03-20T17:18:41.845Z,10.30
2018-03-20T17:21:09.273Z,9.13
2018-03-20T17:23:36.705Z,9.73
2018-03-20T17:26:04.132Z,13.32
2018-03-20T17:28:31.575Z,10.25
2018-03-20T17:30:59.064Z,8.30
2018-03-20T17:33:26.441Z,10.05
2018-03-20T17:35:53.865Z,9.82
2018-03-20T17:38:21.297Z,9.27
2018-03-20T17:40:48.725Z,9.30
2018-03-20T17:43:16.175Z,8.80
2018-03-20T17:45:43.592Z,9.32
2018-03-20T17:48:11.028Z,9.88
2018-03-20T17:50:38.466Z,13.68
2018-03-20T17:53:05.907Z,11.93
2018-03-20T17:55:33.329Z,11.15
2018-03-20T17:58:00.777Z,10.20
2018-03-20T18:00:28.207Z,11.55
2018-03-20T18:02:55.658Z,10.18
2018-03-20T18:05:23.114Z,11.70
2018-03-20T18:07:55.017Z,9.70
2018-03-20T18:10:23.222Z,11.25
2018-03-20T18:12:50.640Z,10.63
2018-03-20T18:15:18.073Z,10.90
2018-03-20T18:17:45.541Z,11.25
2018-03-20T18:20:12.993Z,10.45
2018-03-20T18:22:40.470Z,11.15
2018-03-20T18:25:07.924Z,11.82
2018-03-20T18:27:35.356Z,11.95
2018-03-20T18:30:02.796Z,11.40
2018-03-20T18:32:30.229Z,10.82
2018-03-20T18:34:57.673Z,11.50
2018-03-20T18:37:25.102Z,12.68
2018-03-20T18:39:53.517Z,11.73
2018-03-20T18:42:20.914Z,12.05
2018-03-20T18:44:48.507Z,11.82
2018-03-20T18:47:15.921Z,13.00
2018-03-20T18:49:43.377Z,13.07
2018-03-20T18:52:10.847Z,13.98
2018-03-20T18:54:38.258Z,13.38
2018-03-20T18:57:05.701Z,14.98
2018-03-20T18:59:33.125Z,14.00
2018-03-20T19:02:01.329Z,11.77
2018-03-20T19:04:28.757Z,11.50
2018-03-20T19:06:56.193Z,11.95
2018-03-20T19:09:23.617Z,11.70
2018-03-20T19:11:51.065Z,12.55
2018-03-20T19:14:18.493Z,14.40
2018-03-20T19:16:46.798Z,13.27
2018-03-20T19:19:14.220Z,12.68
2018-03-20T19:21:42.424Z,11.35
2018-03-20T19:24:09.849Z,12.25
2018-03-20T19:26:37.281Z,11.98
2018-03-20T19:29:04.718Z,11.93
2018-03-20T19:31:32.168Z,11.12
2018-03-20T19:33:59.625Z,12.57
2018-03-20T19:36:27.048Z,12.75
2018-03-20T19:38:54.496Z,13.57
2018-03-20T19:41:21.929Z,12.55
2018-03-20T19:43:50.143Z,12.05
2018-03-20T19:46:17.568Z,12.20
2018-03-20T19:48:44.996Z,12.02
2018-03-20T19:51:12.427Z,11.57
2018-03-20T19:53:39.884Z,11.88
2018-03-20T19:56:07.309Z,12.13
2018-03-20T19:58:36.885Z,13.95
2018-03-20T20:01:04.316Z,13.25
2018-03-20T20:03:31.752Z,12.93
2018-03-20T20:05:59.181Z,12.52
2018-03-20T20:08:26.616Z,12.75
2018-03-20T20:10:54.818Z,12.95
2018-03-20T20:13:22.249Z,16.08
2018-03-20T20:15:49.674Z,14.98
2018-03-20T20:18:17.110Z,16.33
2018-03-20T20:20:44.545Z,17.77
2018-03-20T20:23:11.964Z,17.20
2018-03-20T20:25:40.228Z,18.27
2018-03-20T20:28:07.600Z,15.50
2018-03-20T20:30:35.042Z,14.30
2018-03-20T20:33:02.883Z,13.27
2018-03-20T20:35:31.232Z,12.40
2018-03-20T20:37:58.669Z,11.90
2018-03-20T20:40:26.105Z,12.07
2018-03-20T20:42:53.540Z,14.27
2018-03-20T20:45:21.905Z,13.18
2018-03-20T20:47:49.329Z,12.65
2018-03-20T20:50:17.141Z,13.35
2018-03-20T20:52:44.602Z,13.00
2018-03-20T20:55:12.037Z,11.70
2018-03-20T20:57:40.116Z,12.95
2018-03-20T21:00:07.565Z,12.02
2018-03-20T21:02:35.022Z,14.45
2018-03-20T21:05:02.501Z,14.25
2018-03-20T21:07:29.974Z,16.98
2018-03-20T21:09:58.160Z,15.00
2018-03-20T21:12:27.637Z,15.23
2018-03-20T21:14:56.732Z,15.95
2018-03-20T21:17:24.161Z,16.83
2018-03-20T21:20:00.086Z,16.50
2018-03-20T21:22:27.504Z,16.35
2018-03-20T21:24:55.715Z,16.48
2018-03-20T21:27:23.137Z,12.63
2018-03-20T21:29:50.573Z,13.70
2018-03-20T21:32:18.013Z,12.25
2018-03-20T21:34:45.433Z,11.75
2018-03-20T21:37:12.860Z,13.10
2018-03-20T21:39:40.313Z,13.65
2018-03-20T21:42:08.508Z,11.90
2018-03-20T21:44:35.954Z,12.57
2018-03-20T21:47:03.377Z,11.60
2018-03-20T21:49:30.817Z,11.80
2018-03-20T21:51:58.241Z,12.43
2018-03-20T21:54:25.693Z,12.63
2018-03-20T21:56:53.116Z,12.20
2018-03-20T21:59:21.326Z,11.43
2018-03-20T22:01:48.748Z,11.60
2018-03-20T22:04:16.286Z,12.45
2018-03-20T22:06:43.727Z,12.18
2018-03-20T22:09:11.268Z,13.38
2018-03-20T22:11:38.701Z,12.00
2018-03-20T22:14:06.136Z,11.93
2018-03-20T22:16:33.580Z,12.32
2018-03-20T22:19:02.407Z,12.88
2018-03-20T22:21:29.865Z,11.82
2018-03-20T22:23:57.293Z,11.57
2018-03-20T22:26:24.741Z,11.55
2018-03-20T22:28:52.940Z,12.98
2018-03-20T22:31:20.377Z,12.00
2018-03-20T22:33:47.809Z,10.82
2018-03-20T22:36:15.271Z,11.20
2018-03-20T22:38:42.673Z,12.50
2018-03-20T22:41:10.100Z,11.50
2018-03-20T22:43:44.665Z,11.30
2018-03-20T22:46:12.104Z,10.90
2018-03-20T22:48:39.528Z,11.00
2018-03-20T22:51:07.754Z,11.40
2018-03-20T22:53:35.180Z,11.48
2018-03-20T22:56:02.606Z,12.15
2018-03-20T22:58:30.867Z,11.75
2018-03-20T23:00:58.297Z,11.60
2018-03-20T23:03:25.764Z,10.40
2018-03-20T23:05:53.283Z,11.10
2018-03-20T23:08:20.661Z,11.52
2018-03-20T23:10:48.093Z,11.52
2018-03-20T23:13:15.539Z,11.75
2018-03-20T23:15:42.964Z,11.35
2018-03-20T23:18:10.407Z,12.48
2018-03-20T23:20:37.913Z,11.98
2018-03-20T23:23:05.349Z,11.55
2018-03-20T23:25:32.769Z,12.15
2018-03-20T23:28:00.210Z,11.25
2018-03-20T23:30:27.641Z,11.80
2018-03-20T23:32:55.069Z,11.00
2018-03-20T23:35:23.293Z,13.07
2018-03-20T23:37:50.726Z,12.50
2018-03-20T23:40:18.170Z,12.95
2018-03-20T23:42:45.593Z,11.40
2018-03-20T23:45:13.029Z,12.40
2018-03-20T23:47:40.488Z,12.15
2018-03-20T23:50:07.921Z,12.73
2018-03-20T23:52:35.353Z,11.55
2018-03-20T23:55:02.812Z,12.10
2018-03-20T23:57:30.237Z,10.82
2018-03-20T23:59:57.688Z,10.85
